createdAt,value
2018-03-30T00:04:46.814Z,8.00
2018-03-30T00:14:50.069Z,8.10
2018-03-30T00:24:53.320Z,8.00
2018-03-30T00:34:55.797Z,8.30
2018-03-30T00:44:58.281Z,8.30
2018-03-30T00:55:00.761Z,8.20
2018-03-30T01:05:03.244Z,8.00
2018-03-30T01:15:05.726Z,8.10
2018-03-30T01:25:08.974Z,8.10
2018-03-30T01:35:12.227Z,7.90
2018-03-30T01:45:15.477Z,7.80
2018-03-30T01:55:17.966Z,8.20
2018-03-30T02:05:20.449Z,8.10
2018-03-30T02:15:22.938Z,8.30
2018-03-30T02:25:26.177Z,8.20
2018-03-30T02:35:29.433Z,7.80
2018-03-30T02:45:32.677Z,8.20
2018-03-30T02:55:35.930Z,8.10
2018-03-30T03:05:38.410Z,7.80
2018-03-30T03:15:40.893Z,7.70
2018-03-30T03:25:43.382Z,7.80
2018-03-30T03:35:46.633Z,7.70
2018-03-30T03:45:49.894Z,7.80
2018-03-30T03:55:52.386Z,7.80
2018-03-30T04:05:54.864Z,8.00
2018-03-30T04:15:57.346Z,8.10
2018-03-30T04:26:00.596Z,8.00
2018-03-30T04:36:03.841Z,7.90
2018-03-30T04:46:07.085Z,7.90
2018-03-30T04:56:10.342Z,7.80
2018-03-30T05:06:12.820Z,8.00
2018-03-30T05:16:15.297Z,8.00
2018-03-30T05:26:17.785Z,8.10
2018-03-30T05:36:20.261Z,7.80
2018-03-30T05:46:22.746Z,8.00
2018-03-30T05:56:25.993Z,8.00
2018-03-30T06:06:29.237Z,8.20
2018-03-30T06:16:32.486Z,7.70
2018-03-30T06:26:35.745Z,8.00
2018-03-30T06:36:38.981Z,8.10
2018-03-30T06:46:41.461Z,7.80
2018-03-30T06:56:43.937Z,8.00
2018-03-30T07:06:46.421Z,8.10
2018-03-30T07:16:48.905Z,8.00
2018-03-30T07:26:51.422Z,8.00
2018-03-30T07:36:53.902Z,8.10
2018-03-30T07:46:56.381Z,8.10
2018-03-30T07:56:58.865Z,8.00
2018-03-30T08:07:01.343Z,8.10
2018-03-30T08:17:03.824Z,8.30
2018-03-30T08:27:07.085Z,8.40
2018-03-30T08:37:09.570Z,8.40
2018-03-30T08:47:12.058Z,8.60
2018-03-30T08:57:14.548Z,8.80
2018-03-30T09:07:17.786Z,9.30
2018-03-30T09:17:20.274Z,9.20
2018-03-30T09:27:22.753Z,9.20
2018-03-30T09:37:25.241Z,10.00
2018-03-30T09:47:27.736Z,10.00
2018-03-30T09:57:30.217Z,10.00
2018-03-30T10:07:32.701Z,10.40
2018-03-30T10:17:35.193Z,10.70
2018-03-30T10:27:37.689Z,10.90
2018-03-30T10:37:40.947Z,11.10
2018-03-30T10:47:44.199Z,11.00
2018-03-30T10:57:46.690Z,11.10
2018-03-30T11:07:49.182Z,11.30
2018-03-30T11:17:51.670Z,11.40
2018-03-30T11:27:54.163Z,11.40
2018-03-30T11:37:56.645Z,11.40
2018-03-30T11:47:59.140Z,11.70
2018-03-30T11:58:02.391Z,11.70
2018-03-30T12:08:04.881Z,11.70
2018-03-30T12:18:07.373Z,11.90
2018-03-30T12:28:09.870Z,11.70
2018-03-30T12:38:12.361Z,11.80
2018-03-30T12:48:14.846Z,11.90
2018-03-30T12:58:17.346Z,11.80
2018-03-30T13:08:19.829Z,11.80
2018-03-30T13:18:22.322Z,11.80
2018-03-30T13:28:24.814Z,11.90
2018-03-30T13:38:28.086Z,11.80
2018-03-30T13:48:30.577Z,12.20
2018-03-30T13:58:44.465Z,12.40
2018-03-30T14:08:59.340Z,12.50
2018-03-30T14:19:16.557Z,12.20
2018-03-30T14:29:19.866Z,12.30
2018-03-30T14:39:25.777Z,12.30
2018-03-30T14:49:41.645Z,12.30
2018-03-30T14:59:47.569Z,12.40
2018-03-30T15:10:00.763Z,12.30
2018-03-30T15:20:13.791Z,12.70
2018-03-30T15:30:17.926Z,12.70
2018-03-30T15:40:21.186Z,12.50
2018-03-30T15:50:23.674Z,12.50
2018-03-30T16:00:26.161Z,13.10
2018-03-30T16:10:34.149Z,13.00
2018-03-30T16:20:36.157Z,12.70
2018-03-30T16:30:38.157Z,12.50
2018-03-30T16:40:40.167Z,12.60
2018-03-30T16:50:42.164Z,12.70
2018-03-30T17:00:44.160Z,12.60
2018-03-30T17:10:46.161Z,12.70
2018-03-30T17:20:48.161Z,12.60
2018-03-30T17:30:50.153Z,12.30
2018-03-30T17:40:52.154Z,12.20
2018-03-30T17:50:54.160Z,12.60
2018-03-30T18:00:56.929Z,12.30
2018-03-30T18:10:58.918Z,12.50
2018-03-30T18:21:00.918Z,12.20
2018-03-30T18:31:03.686Z,12.20
2018-03-30T18:41:06.450Z,12.10
2018-03-30T18:51:08.449Z,12.10
2018-03-30T19:01:10.449Z,12.30
2018-03-30T19:11:12.456Z,12.10
2018-03-30T19:21:14.456Z,11.90
2018-03-30T19:31:16.450Z,11.80
2018-03-30T19:41:19.226Z,12.00
2018-03-30T19:51:21.222Z,12.10
2018-03-30T20:01:23.238Z,11.80
2018-03-30T20:11:26.090Z,11.80
2018-03-30T20:21:28.086Z,12.00
2018-03-30T20:31:30.092Z,11.70
2018-03-30T20:41:32.102Z,11.80
2018-03-30T20:51:34.866Z,11.70
2018-03-30T21:01:36.869Z,11.40
2018-03-30T21:11:38.865Z,11.70
2018-03-30T21:21:40.969Z,11.30
2018-03-30T21:31:43.743Z,11.60
2018-03-30T21:41:45.733Z,11.60
2018-03-30T21:51:47.729Z,11.40
2018-03-30T22:01:50.489Z,11.40
2018-03-30T22:11:52.498Z,11.40
2018-03-30T22:21:54.498Z,11.40
2018-03-30T22:31:56.501Z,11.20
2018-03-30T22:41:59.266Z,11.30
2018-03-30T22:52:01.262Z,11.30
2018-03-30T23:02:04.022Z,11.30
2018-03-30T23:12:06.023Z,11.00
2018-03-30T23:22:08.026Z,11.30
2018-03-30T23:32:10.018Z,11.30
2018-03-30T23:42:12.780Z,10.90
2018-03-30T23:52:14.797Z,10.90
